createdAt,value
2023-01-25T00:01:31.268Z,19.05
2023-01-25T00:03:58.366Z,19.70
2023-01-25T00:06:24.655Z,20.73
2023-01-25T00:08:51.436Z,19.90
2023-01-25T00:11:18.091Z,19.80
2023-01-25T00:13:44.384Z,18.77
2023-01-25T00:16:10.745Z,18.00
2023-01-25T00:18:37.192Z,18.92
2023-01-25T00:21:14.024Z,19.23
2023-01-25T00:23:40.425Z,19.08
2023-01-25T00:26:06.764Z,18.50
2023-01-25T00:28:33.085Z,17.70
2023-01-25T00:31:03.248Z,19.85
2023-01-25T00:34:05.216Z,20.40
2023-01-25T00:36:31.532Z,21.67
2023-01-25T00:38:58.466Z,20.08
2023-01-25T00:41:24.963Z,20.73
2023-01-25T00:43:51.352Z,21.08
2023-01-25T00:46:18.172Z,19.80
2023-01-25T00:48:44.530Z,20.90
2023-01-25T00:51:11.348Z,20.23
2023-01-25T00:53:37.795Z,20.40
2023-01-25T00:56:04.397Z,20.95
2023-01-25T00:58:30.822Z,21.73
2023-01-25T01:00:57.635Z,21.30
2023-01-25T01:03:24.052Z,19.90
2023-01-25T01:06:03.848Z,19.38
2023-01-25T01:08:30.880Z,20.33
2023-01-25T01:11:01.143Z,21.50
2023-01-25T01:13:28.173Z,20.38
2023-01-25T01:15:54.725Z,22.38
2023-01-25T01:18:21.256Z,22.25
2023-01-25T01:20:53.673Z,21.63
2023-01-25T01:23:20.373Z,21.77
2023-01-25T01:25:46.900Z,20.65
2023-01-25T01:28:13.401Z,20.98
2023-01-25T01:30:39.896Z,20.65
2023-01-25T01:33:06.873Z,21.02
2023-01-25T01:35:33.306Z,20.42
2023-01-25T01:37:59.704Z,21.02
2023-01-25T01:40:26.080Z,19.83
2023-01-25T01:42:59.933Z,19.83
2023-01-25T01:45:44.734Z,21.35
2023-01-25T01:48:15.484Z,21.33
2023-01-25T01:50:42.461Z,21.63
2023-01-25T01:53:09.112Z,21.75
2023-01-25T01:55:36.797Z,21.00
2023-01-25T01:58:03.705Z,20.58
2023-01-25T02:00:32.593Z,22.15
2023-01-25T02:02:59.172Z,21.08
2023-01-25T02:05:28.144Z,22.50
2023-01-25T02:07:55.431Z,21.05
2023-01-25T02:10:22.128Z,21.80
2023-01-25T02:12:48.656Z,21.02
2023-01-25T02:15:15.141Z,21.23
2023-01-25T02:17:41.770Z,21.77
2023-01-25T02:20:14.051Z,21.35
2023-01-25T02:22:54.421Z,21.45
2023-01-25T02:25:21.132Z,23.65
2023-01-25T02:28:08.320Z,21.58
2023-01-25T02:30:34.642Z,21.52
2023-01-25T02:33:01.206Z,21.80
2023-01-25T02:35:36.728Z,22.40
2023-01-25T02:38:03.469Z,21.73
2023-01-25T02:40:31.269Z,22.30
2023-01-25T02:42:58.046Z,21.70
2023-01-25T02:45:27.531Z,22.30
2023-01-25T02:47:53.868Z,21.45
2023-01-25T02:50:20.210Z,23.00
2023-01-25T02:52:46.509Z,22.38
2023-01-25T02:55:12.851Z,22.50
2023-01-25T02:57:39.241Z,21.90
2023-01-25T03:00:06.079Z,21.55
2023-01-25T03:02:32.686Z,21.67
2023-01-25T03:04:59.038Z,23.00
2023-01-25T03:07:25.452Z,22.48
2023-01-25T03:09:51.826Z,21.75
2023-01-25T03:12:18.176Z,22.33
2023-01-25T03:14:44.585Z,21.50
2023-01-25T03:17:11.005Z,23.35
2023-01-25T03:19:37.324Z,21.45
2023-01-25T03:22:03.721Z,20.30
2023-01-25T03:24:30.192Z,21.27
2023-01-25T03:27:11.823Z,21.85
2023-01-25T03:29:38.332Z,19.83
2023-01-25T03:32:04.977Z,21.05
2023-01-25T03:34:31.493Z,22.33
2023-01-25T03:36:57.808Z,22.73
2023-01-25T03:39:24.168Z,21.90
2023-01-25T03:41:50.502Z,21.42
2023-01-25T03:44:16.877Z,20.88
2023-01-25T03:46:43.319Z,23.00
2023-01-25T03:49:09.936Z,22.42
2023-01-25T03:51:36.513Z,22.58
2023-01-25T03:54:03.170Z,22.40
2023-01-25T03:56:29.512Z,22.15
2023-01-25T03:58:55.843Z,23.35
2023-01-25T04:01:22.250Z,22.73
2023-01-25T04:03:48.641Z,20.90
2023-01-25T04:06:15.072Z,21.75
2023-01-25T04:08:41.371Z,23.35
2023-01-25T04:11:08.901Z,22.98
2023-01-25T04:13:36.594Z,23.00
2023-01-25T04:16:03.524Z,23.33
2023-01-25T04:18:29.963Z,24.08
2023-01-25T04:20:56.923Z,22.35
2023-01-25T04:23:24.227Z,23.92
2023-01-25T04:25:54.226Z,21.60
2023-01-25T04:28:20.639Z,22.70
2023-01-25T04:30:46.952Z,23.27
2023-01-25T04:33:13.325Z,23.20
2023-01-25T04:35:39.861Z,22.58
2023-01-25T04:38:06.587Z,22.25
2023-01-25T04:40:33.301Z,22.90
2023-01-25T04:42:59.719Z,23.35
2023-01-25T04:45:26.117Z,24.52
2023-01-25T04:47:56.681Z,22.67
2023-01-25T04:50:23.184Z,24.70
2023-01-25T04:52:49.523Z,22.92
2023-01-25T04:55:15.924Z,23.40
2023-01-25T04:57:42.339Z,23.90
2023-01-25T05:00:09.649Z,23.40
2023-01-25T05:02:36.012Z,23.60
2023-01-25T05:05:02.353Z,24.33
2023-01-25T05:07:28.684Z,24.60
2023-01-25T05:09:54.994Z,25.13
2023-01-25T05:12:21.305Z,24.45
2023-01-25T05:14:47.625Z,24.50
2023-01-25T05:17:14.009Z,24.52
2023-01-25T05:19:40.326Z,24.80
2023-01-25T05:22:11.490Z,24.42
2023-01-25T05:24:41.518Z,23.73
2023-01-25T05:27:08.903Z,24.15
2023-01-25T05:29:36.612Z,24.08
2023-01-25T05:32:13.366Z,26.08
2023-01-25T05:34:39.852Z,26.55
2023-01-25T05:37:07.251Z,26.85
2023-01-25T05:39:33.588Z,29.35
2023-01-25T05:41:59.916Z,29.45
2023-01-25T05:44:26.712Z,29.70
2023-01-25T05:46:54.277Z,29.15
2023-01-25T05:49:20.716Z,29.52
2023-01-25T05:51:47.558Z,31.17
2023-01-25T05:54:15.117Z,29.67
2023-01-25T05:56:41.832Z,30.90
2023-01-25T05:59:09.770Z,31.10
2023-01-25T06:01:36.173Z,29.73
2023-01-25T06:04:02.613Z,30.75
2023-01-25T06:06:28.987Z,30.80
2023-01-25T06:08:55.311Z,30.40
2023-01-25T06:11:22.923Z,31.50
2023-01-25T06:13:49.664Z,31.35
2023-01-25T06:16:16.804Z,31.15
2023-01-25T06:18:43.479Z,31.00
2023-01-25T06:21:10.284Z,30.75
2023-01-25T06:23:36.659Z,30.90
2023-01-25T06:26:04.654Z,31.27
2023-01-25T06:28:31.957Z,30.83
2023-01-25T06:31:08.956Z,30.60
2023-01-25T06:33:35.769Z,29.63
2023-01-25T06:36:03.168Z,31.70
2023-01-25T06:38:29.602Z,30.52
2023-01-25T06:40:58.726Z,32.25
2023-01-25T06:43:25.190Z,30.45
2023-01-25T06:45:51.506Z,31.17
2023-01-25T06:48:17.844Z,31.23
2023-01-25T06:50:44.252Z,31.85
2023-01-25T06:53:10.563Z,25.95
2023-01-25T06:55:37.190Z,28.30
2023-01-25T06:58:03.646Z,31.42
2023-01-25T07:00:30.036Z,31.10
2023-01-25T07:02:56.439Z,31.25
2023-01-25T07:05:24.075Z,31.35
2023-01-25T07:07:50.412Z,31.70
2023-01-25T07:10:16.913Z,30.52
2023-01-25T07:12:43.200Z,31.45
2023-01-25T07:15:10.195Z,31.02
2023-01-25T07:17:37.039Z,30.08
2023-01-25T07:20:03.505Z,30.00
2023-01-25T07:22:29.893Z,30.40
2023-01-25T07:24:57.825Z,29.80
2023-01-25T07:27:24.345Z,30.98
2023-01-25T07:29:50.720Z,30.80
2023-01-25T07:32:17.072Z,31.27
2023-01-25T07:34:43.416Z,31.38
2023-01-25T07:37:10.173Z,30.13
2023-01-25T07:39:36.586Z,31.92
2023-01-25T07:42:02.980Z,31.38
2023-01-25T07:44:29.324Z,30.15
2023-01-25T07:46:55.676Z,31.27
2023-01-25T07:49:22.102Z,30.25
2023-01-25T07:51:48.493Z,31.10
2023-01-25T07:54:14.812Z,31.20
2023-01-25T07:56:41.164Z,32.45
2023-01-25T07:59:10.444Z,30.70
2023-01-25T08:01:37.131Z,30.75
2023-01-25T08:04:04.628Z,32.70
2023-01-25T08:06:35.721Z,31.23
2023-01-25T08:09:04.111Z,31.73
2023-01-25T08:11:31.403Z,32.55
2023-01-25T08:13:57.965Z,31.63
2023-01-25T08:16:25.587Z,31.42
2023-01-25T08:18:53.098Z,31.58
2023-01-25T08:21:19.561Z,30.10
2023-01-25T08:23:46.073Z,32.60
2023-01-25T08:26:14.004Z,30.42
2023-01-25T08:28:40.458Z,31.23
2023-01-25T08:31:07.971Z,29.27
2023-01-25T08:33:34.722Z,28.75
2023-01-25T08:36:01.088Z,28.92
2023-01-25T08:38:27.425Z,30.27
2023-01-25T08:40:53.745Z,30.05
2023-01-25T08:43:20.193Z,30.33
2023-01-25T08:45:47.903Z,29.05
2023-01-25T08:48:16.484Z,27.85
2023-01-25T08:50:47.232Z,28.50
2023-01-25T08:53:13.845Z,28.40
2023-01-25T08:55:42.807Z,30.55
2023-01-25T08:58:13.169Z,29.02
2023-01-25T09:00:40.172Z,31.85
2023-01-25T09:03:07.631Z,28.92
2023-01-25T09:05:34.785Z,28.45
2023-01-25T09:08:01.989Z,28.70
2023-01-25T09:10:28.445Z,29.73
2023-01-25T09:12:54.806Z,26.58
2023-01-25T09:15:22.704Z,28.83
2023-01-25T09:17:52.888Z,28.67
2023-01-25T09:20:19.911Z,29.20
2023-01-25T09:22:46.373Z,31.17
2023-01-25T09:25:12.735Z,29.27
2023-01-25T09:27:39.159Z,29.52
2023-01-25T09:30:10.883Z,28.05
2023-01-25T09:32:40.420Z,31.13
2023-01-25T09:35:07.121Z,31.02
2023-01-25T09:37:33.448Z,29.20
2023-01-25T09:40:00.221Z,29.88
2023-01-25T09:42:29.470Z,27.05
2023-01-25T09:45:10.960Z,28.65
2023-01-25T09:47:48.861Z,29.60
2023-01-25T09:50:21.044Z,29.73
2023-01-25T09:53:13.560Z,29.67
2023-01-25T09:55:40.222Z,30.85
2023-01-25T09:58:11.142Z,31.33
2023-01-25T10:00:41.461Z,30.85
2023-01-25T10:03:22.508Z,29.90
2023-01-25T10:05:57.622Z,29.65
2023-01-25T10:08:25.867Z,28.42
2023-01-25T10:10:55.780Z,27.48
2023-01-25T10:13:23.157Z,27.80
2023-01-25T10:15:58.925Z,27.70
2023-01-25T10:18:25.250Z,27.58
2023-01-25T10:21:10.417Z,29.45
2023-01-25T10:23:42.633Z,28.45
2023-01-25T10:26:14.683Z,27.95
2023-01-25T10:28:41.308Z,28.52
2023-01-25T10:31:18.871Z,26.70
2023-01-25T10:33:46.274Z,28.10
2023-01-25T10:36:14.254Z,28.15
2023-01-25T10:38:42.485Z,28.83
2023-01-25T10:41:15.459Z,29.60
2023-01-25T10:43:41.844Z,30.02
2023-01-25T10:46:19.176Z,30.75
2023-01-25T10:48:45.545Z,29.98
2023-01-25T10:51:27.799Z,27.13
2023-01-25T10:53:59.285Z,28.23
2023-01-25T10:56:26.241Z,28.30
2023-01-25T10:58:54.783Z,28.02
2023-01-25T11:01:31.545Z,27.05
2023-01-25T11:03:58.742Z,28.52
2023-01-25T11:06:29.748Z,26.55
2023-01-25T11:08:56.126Z,27.02
2023-01-25T11:11:22.688Z,27.60
2023-01-25T11:13:49.029Z,27.75
2023-01-25T11:16:30.709Z,28.55
2023-01-25T11:18:58.160Z,26.95
2023-01-25T11:21:25.829Z,27.65
2023-01-25T11:24:09.101Z,28.70
2023-01-25T11:26:36.759Z,26.50
2023-01-25T11:29:08.315Z,29.45
2023-01-25T11:31:34.952Z,28.08
2023-01-25T11:34:01.382Z,27.60
2023-01-25T11:36:27.673Z,27.42
2023-01-25T11:38:54.009Z,26.88
2023-01-25T11:41:35.646Z,27.27
2023-01-25T11:44:01.967Z,26.42
2023-01-25T11:46:41.915Z,27.38
2023-01-25T11:49:08.343Z,27.45
2023-01-25T11:51:51.499Z,26.08
2023-01-25T11:54:27.711Z,26.95
2023-01-25T11:56:56.861Z,25.40
2023-01-25T11:59:40.019Z,27.75
2023-01-25T12:02:10.039Z,26.05
2023-01-25T12:04:55.252Z,28.38
2023-01-25T12:07:27.790Z,26.80
2023-01-25T12:09:59.608Z,26.60
2023-01-25T12:12:31.836Z,26.25
2023-01-25T12:15:07.190Z,26.45
2023-01-25T12:17:33.840Z,26.20
2023-01-25T12:20:00.134Z,24.35
2023-01-25T12:22:29.347Z,25.65
2023-01-25T12:25:07.865Z,26.15
2023-01-25T12:27:37.091Z,26.70
2023-01-25T12:30:23.348Z,26.88
2023-01-25T12:33:02.302Z,26.65
2023-01-25T12:35:40.793Z,27.60
2023-01-25T12:38:14.978Z,27.40
2023-01-25T12:40:45.520Z,27.88
2023-01-25T12:43:16.482Z,27.40
2023-01-25T12:45:45.971Z,27.23
2023-01-25T12:48:24.997Z,26.73
2023-01-25T12:50:54.173Z,27.17
2023-01-25T12:53:29.588Z,24.77
2023-01-25T12:55:56.329Z,27.10
2023-01-25T12:58:38.101Z,27.40
2023-01-25T13:01:23.567Z,27.60
2023-01-25T13:04:01.940Z,27.90
2023-01-25T13:06:45.621Z,26.80
2023-01-25T13:09:25.908Z,26.77
2023-01-25T13:11:52.341Z,28.08
2023-01-25T13:14:19.485Z,27.13
2023-01-25T13:16:50.182Z,28.23
2023-01-25T13:19:22.643Z,27.70
2023-01-25T13:21:50.217Z,28.42
2023-01-25T13:24:24.296Z,27.70
2023-01-25T13:26:58.355Z,30.05
2023-01-25T13:29:34.786Z,27.63
2023-01-25T13:32:02.052Z,26.65
2023-01-25T13:34:40.376Z,28.95
2023-01-25T13:37:15.609Z,29.13
2023-01-25T13:39:43.128Z,28.05
2023-01-25T13:42:09.444Z,29.20
2023-01-25T13:44:38.356Z,28.70
2023-01-25T13:47:06.647Z,29.88
2023-01-25T13:49:39.751Z,28.38
2023-01-25T13:52:06.217Z,29.08
2023-01-25T13:54:32.623Z,28.30
2023-01-25T13:57:06.013Z,28.58
2023-01-25T13:59:32.570Z,28.15
2023-01-25T14:01:59.280Z,28.67
2023-01-25T14:04:25.659Z,27.83
2023-01-25T14:06:56.082Z,29.10
2023-01-25T14:09:22.702Z,27.25
2023-01-25T14:11:52.030Z,26.88
2023-01-25T14:14:18.327Z,28.08
2023-01-25T14:16:45.070Z,26.17
2023-01-25T14:19:22.228Z,26.85
2023-01-25T14:21:48.656Z,27.77
2023-01-25T14:24:17.374Z,26.73
2023-01-25T14:26:46.118Z,27.58
2023-01-25T14:29:35.272Z,27.08
2023-01-25T14:32:03.398Z,25.33
2023-01-25T14:34:29.814Z,28.27
2023-01-25T14:37:16.924Z,28.35
2023-01-25T14:39:43.604Z,27.52
2023-01-25T14:42:10.457Z,27.05
2023-01-25T14:44:36.867Z,28.40
2023-01-25T14:47:24.690Z,27.55
2023-01-25T14:49:51.102Z,27.65
2023-01-25T14:52:19.409Z,28.15
2023-01-25T14:54:51.896Z,27.92
2023-01-25T14:57:27.609Z,29.30
2023-01-25T14:59:54.697Z,27.90
2023-01-25T15:02:30.500Z,28.10
2023-01-25T15:07:36.289Z,26.00
2023-01-25T15:10:15.202Z,27.73
2023-01-25T15:12:41.607Z,25.25
2023-01-25T15:15:19.162Z,25.70
2023-01-25T15:17:46.940Z,26.80
2023-01-25T15:20:29.143Z,27.63
2023-01-25T15:22:56.785Z,27.45
2023-01-25T15:25:24.305Z,28.30
2023-01-25T15:27:51.053Z,27.50
2023-01-25T15:30:18.329Z,26.95
2023-01-25T15:32:45.479Z,28.73
2023-01-25T15:35:15.978Z,29.40
2023-01-25T15:37:42.353Z,27.98
2023-01-25T15:40:10.689Z,28.20
2023-01-25T15:42:37.246Z,28.58
2023-01-25T15:45:05.563Z,28.10
2023-01-25T15:47:33.442Z,29.63
2023-01-25T15:49:59.761Z,27.83
2023-01-25T15:52:26.212Z,28.40
2023-01-25T15:55:01.354Z,27.60
2023-01-25T15:59:56.117Z,27.30
2023-01-25T16:02:23.115Z,29.20
2023-01-25T16:04:52.152Z,27.52
2023-01-25T16:07:29.085Z,28.30
2023-01-25T16:09:55.385Z,29.10
2023-01-25T16:12:25.660Z,29.30
2023-01-25T16:14:52.028Z,29.88
2023-01-25T16:17:19.650Z,29.08
2023-01-25T16:19:47.710Z,30.55
2023-01-25T16:22:17.599Z,29.75
2023-01-25T16:24:44.798Z,30.85
2023-01-25T16:27:22.708Z,30.65
2023-01-25T16:29:49.073Z,30.60
2023-01-25T16:32:15.755Z,29.50
2023-01-25T16:34:42.154Z,30.75
2023-01-25T16:37:14.334Z,32.10
2023-01-25T16:39:41.180Z,30.55
2023-01-25T16:42:09.195Z,32.95
2023-01-25T16:44:35.531Z,32.00
2023-01-25T16:47:02.211Z,32.75
2023-01-25T16:49:30.436Z,28.25
2023-01-25T16:51:57.511Z,32.70
2023-01-25T16:54:24.992Z,33.10
2023-01-25T16:56:52.044Z,34.50
2023-01-25T16:59:19.347Z,34.10
2023-01-25T17:01:46.239Z,33.92
2023-01-25T17:04:12.686Z,35.13
2023-01-25T17:06:40.937Z,33.08
2023-01-25T17:09:21.654Z,33.25
2023-01-25T17:11:49.281Z,33.42
2023-01-25T17:14:17.517Z,34.63
2023-01-25T17:16:45.122Z,33.95
2023-01-25T17:19:13.116Z,34.90
2023-01-25T17:21:39.489Z,34.17
2023-01-25T17:24:06.158Z,35.22
2023-01-25T17:26:33.003Z,34.55
2023-01-25T17:29:01.701Z,33.92
2023-01-25T17:31:31.860Z,37.75
2023-01-25T17:34:00.904Z,37.30
2023-01-25T17:36:27.328Z,39.08
2023-01-25T17:38:53.955Z,39.05
2023-01-25T17:41:20.355Z,39.80
2023-01-25T17:43:50.237Z,38.60
2023-01-25T17:46:25.662Z,38.67
2023-01-25T17:48:52.847Z,40.70
2023-01-25T17:51:19.608Z,39.63
2023-01-25T17:53:46.316Z,42.28
2023-01-25T17:56:12.862Z,41.70
2023-01-25T17:58:39.604Z,42.17
2023-01-25T18:01:14.213Z,43.80
2023-01-25T18:03:41.369Z,43.05
2023-01-25T18:06:10.666Z,44.33
2023-01-25T18:08:38.005Z,44.75
2023-01-25T18:11:08.646Z,44.20
2023-01-25T18:13:38.464Z,44.35
2023-01-25T18:16:05.730Z,44.25
2023-01-25T18:18:32.164Z,43.75
2023-01-25T18:21:02.350Z,43.20
2023-01-25T18:23:28.788Z,44.47
2023-01-25T18:25:55.181Z,46.45
2023-01-25T18:28:21.561Z,45.50
2023-01-25T18:30:51.954Z,47.22
2023-01-25T18:33:18.425Z,46.88
2023-01-25T18:35:48.370Z,44.38
2023-01-25T18:38:15.467Z,44.83
2023-01-25T18:40:43.739Z,45.97
2023-01-25T18:43:11.476Z,45.63
2023-01-25T18:45:39.160Z,45.53
2023-01-25T18:48:06.032Z,45.22
2023-01-25T18:50:33.001Z,43.20
2023-01-25T18:52:59.302Z,45.25
2023-01-25T18:55:27.337Z,45.38
2023-01-25T18:57:53.691Z,47.95
2023-01-25T19:00:20.302Z,45.80
2023-01-25T19:02:46.662Z,48.53
2023-01-25T19:05:14.289Z,46.33
2023-01-25T19:07:40.700Z,48.90
2023-01-25T19:10:07.135Z,46.95
2023-01-25T19:12:33.520Z,48.53
2023-01-25T19:14:59.894Z,49.28
2023-01-25T19:17:26.255Z,49.97
2023-01-25T19:19:52.594Z,49.22
2023-01-25T19:22:18.972Z,49.33
2023-01-25T19:24:45.733Z,50.33
2023-01-25T19:27:12.091Z,50.03
2023-01-25T19:29:38.582Z,49.45
2023-01-25T19:32:05.180Z,50.85
2023-01-25T19:34:31.619Z,49.47
2023-01-25T19:36:58.240Z,48.95
2023-01-25T19:39:24.635Z,49.60
2023-01-25T19:41:52.309Z,50.97
2023-01-25T19:44:18.749Z,47.33
2023-01-25T19:46:45.131Z,50.92
2023-01-25T19:49:13.033Z,50.33
2023-01-25T19:51:41.582Z,48.38
2023-01-25T19:54:10.610Z,49.85
2023-01-25T19:56:38.943Z,49.90
2023-01-25T19:59:06.699Z,50.80
2023-01-25T20:01:35.223Z,49.28
2023-01-25T20:04:02.726Z,50.60
2023-01-25T20:06:29.237Z,49.67
2023-01-25T20:08:55.659Z,49.90
2023-01-25T20:11:23.444Z,49.30
2023-01-25T20:13:52.140Z,46.38
2023-01-25T20:16:18.823Z,47.13
2023-01-25T20:18:45.907Z,45.92
2023-01-25T20:21:13.658Z,48.00
2023-01-25T20:23:41.284Z,45.47
2023-01-25T20:26:15.512Z,46.47
2023-01-25T20:28:42.687Z,43.05
2023-01-25T20:31:27.716Z,45.42
2023-01-25T20:33:56.053Z,42.35
2023-01-25T20:36:23.036Z,44.22
2023-01-25T20:38:49.592Z,43.75
2023-01-25T20:41:17.092Z,44.22
2023-01-25T20:43:50.398Z,41.75
2023-01-25T20:46:17.031Z,40.38
2023-01-25T20:48:43.780Z,39.80
2023-01-25T20:51:12.991Z,40.38
2023-01-25T20:53:40.482Z,42.63
2023-01-25T20:56:07.277Z,39.35
2023-01-25T20:58:33.737Z,39.78
2023-01-25T21:01:00.062Z,39.13
2023-01-25T21:03:29.105Z,38.80
2023-01-25T21:05:57.399Z,36.35
2023-01-25T21:08:24.435Z,35.47
2023-01-25T21:10:55.727Z,34.63
2023-01-25T21:13:22.550Z,33.15
2023-01-25T21:15:58.411Z,32.58
2023-01-25T21:23:17.445Z,30.15
2023-01-25T21:25:44.024Z,28.63
2023-01-25T21:28:10.347Z,28.88
2023-01-25T21:30:36.680Z,28.02
2023-01-25T21:33:03.033Z,28.92
2023-01-25T21:35:29.544Z,28.83
2023-01-25T21:37:55.883Z,28.23
2023-01-25T21:40:22.206Z,28.98
2023-01-25T21:42:48.552Z,28.65
2023-01-25T21:45:33.861Z,26.85
2023-01-25T21:48:00.270Z,26.73
2023-01-25T21:50:45.105Z,26.73
2023-01-25T21:53:11.417Z,25.88
2023-01-25T21:55:37.943Z,25.73
2023-01-25T21:58:04.274Z,24.90
2023-01-25T22:00:30.758Z,24.85
2023-01-25T22:02:57.093Z,23.38
2023-01-25T22:05:23.460Z,24.42
2023-01-25T22:07:49.752Z,22.67
2023-01-25T22:10:16.315Z,23.17
2023-01-25T22:12:42.659Z,23.15
2023-01-25T22:15:09.148Z,22.00
2023-01-25T22:17:35.491Z,22.98
2023-01-25T22:20:01.881Z,22.05
2023-01-25T22:22:28.223Z,21.95
2023-01-25T22:24:54.589Z,22.63
2023-01-25T22:27:30.285Z,23.15
2023-01-25T22:29:56.715Z,23.48
2023-01-25T22:32:23.024Z,22.17
2023-01-25T22:34:49.447Z,22.17
2023-01-25T22:37:15.853Z,22.70
2023-01-25T22:39:42.244Z,20.40
2023-01-25T22:42:08.567Z,21.95
2023-01-25T22:44:34.920Z,21.17
2023-01-25T22:47:01.229Z,20.63
2023-01-25T22:49:27.584Z,19.48
2023-01-25T22:51:53.983Z,19.25
2023-01-25T22:54:20.358Z,19.33
2023-01-25T22:56:46.696Z,19.80
2023-01-25T22:59:18.574Z,18.35
2023-01-25T23:01:45.011Z,18.73
2023-01-25T23:04:11.407Z,18.70
2023-01-25T23:06:38.324Z,18.48
2023-01-25T23:09:05.521Z,18.95
2023-01-25T23:11:35.602Z,18.45
2023-01-25T23:14:20.903Z,19.48
2023-01-25T23:16:47.430Z,18.80
2023-01-25T23:19:14.453Z,20.00
2023-01-25T23:21:41.365Z,19.30
2023-01-25T23:24:08.184Z,18.10
2023-01-25T23:26:39.062Z,18.83
2023-01-25T23:29:08.202Z,18.08
2023-01-25T23:31:34.681Z,17.77
2023-01-25T23:34:02.614Z,17.80
2023-01-25T23:36:33.136Z,17.63
2023-01-25T23:38:59.809Z,17.05
2023-01-25T23:41:27.107Z,17.48
2023-01-25T23:43:55.022Z,18.85
2023-01-25T23:46:21.878Z,16.63
2023-01-25T23:48:48.196Z,17.67
2023-01-25T23:51:15.503Z,17.48
2023-01-25T23:53:41.815Z,17.85
2023-01-25T23:56:10.877Z,16.75
2023-01-25T23:58:37.945Z,17.33
